sensor_id;sensor_type;location;lat;lon;timestamp;temperature;humidity
33815;DHT22;20121;51.910;8.406;2023-04-24T00:02:21;11.30;99.90
33815;DHT22;20121;51.910;8.406;2023-04-24T00:04:47;11.30;99.90
33815;DHT22;20121;51.910;8.406;2023-04-24T00:07:14;11.20;99.90
33815;DHT22;20121;51.910;8.406;2023-04-24T00:09:43;11.20;99.90
33815;DHT22;20121;51.910;8.406;2023-04-24T00:12:09;11.20;99.90
33815;DHT22;20121;51.910;8.406;2023-04-24T00:14:35;11.10;99.90
33815;DHT22;20121;51.910;8.406;2023-04-24T00:17:01;11.10;99.90
33815;DHT22;20121;51.910;8.406;2023-04-24T00:19:30;11.00;99.90
33815;DHT22;20121;51.910;8.406;2023-04-24T00:21:56;11.00;99.90
33815;DHT22;20121;51.910;8.406;2023-04-24T00:24:22;11.00;99.90
33815;DHT22;20121;51.910;8.406;2023-04-24T00:26:47;10.90;99.90
33815;DHT22;20121;51.910;8.406;2023-04-24T00:29:13;10.90;99.90
33815;DHT22;20121;51.910;8.406;2023-04-24T00:31:39;11.00;99.90
33815;DHT22;20121;51.910;8.406;2023-04-24T00:34:05;11.00;99.90
33815;DHT22;20121;51.910;8.406;2023-04-24T00:36:31;11.00;99.90
33815;DHT22;20121;51.910;8.406;2023-04-24T00:38:57;11.00;99.90
33815;DHT22;20121;51.910;8.406;2023-04-24T00:41:24;11.00;99.90
33815;DHT22;20121;51.910;8.406;2023-04-24T00:43:51;11.00;99.90
33815;DHT22;20121;51.910;8.406;2023-04-24T00:46:17;10.70;99.90
33815;DHT22;20121;51.910;8.406;2023-04-24T00:48:43;11.00;99.90
33815;DHT22;20121;51.910;8.406;2023-04-24T00:51:08;11.00;99.90
33815;DHT22;20121;51.910;8.406;2023-04-24T00:53:34;11.00;99.90
33815;DHT22;20121;51.910;8.406;2023-04-24T00:56:00;11.00;99.90
33815;DHT22;20121;51.910;8.406;2023-04-24T00:58:26;11.00;99.90
33815;DHT22;20121;51.910;8.406;2023-04-24T01:00:52;10.70;99.90
33815;DHT22;20121;51.910;8.406;2023-04-24T01:03:22;10.70;99.90
33815;DHT22;20121;51.910;8.406;2023-04-24T01:05:49;11.00;99.90
33815;DHT22;20121;51.910;8.406;2023-04-24T01:08:15;11.00;99.90
33815;DHT22;20121;51.910;8.406;2023-04-24T01:10:41;11.00;99.90
33815;DHT22;20121;51.910;8.406;2023-04-24T01:13:08;11.00;99.90
33815;DHT22;20121;51.910;8.406;2023-04-24T01:15:34;11.00;99.90
33815;DHT22;20121;51.910;8.406;2023-04-24T01:18:00;11.00;99.90
33815;DHT22;20121;51.910;8.406;2023-04-24T01:20:26;10.90;99.90
33815;DHT22;20121;51.910;8.406;2023-04-24T01:22:52;10.90;99.90
33815;DHT22;20121;51.910;8.406;2023-04-24T01:25:20;10.90;99.90
33815;DHT22;20121;51.910;8.406;2023-04-24T01:27:46;10.90;99.90
33815;DHT22;20121;51.910;8.406;2023-04-24T01:30:12;10.90;99.90
33815;DHT22;20121;51.910;8.406;2023-04-24T01:32:39;10.80;99.90
33815;DHT22;20121;51.910;8.406;2023-04-24T01:35:06;10.80;99.90
33815;DHT22;20121;51.910;8.406;2023-04-24T01:37:32;10.70;99.90
33815;DHT22;20121;51.910;8.406;2023-04-24T01:39:58;10.30;99.90
33815;DHT22;20121;51.910;8.406;2023-04-24T01:42:24;10.30;99.90
33815;DHT22;20121;51.910;8.406;2023-04-24T01:44:50;10.50;99.90
33815;DHT22;20121;51.910;8.406;2023-04-24T01:47:16;10.50;99.90
33815;DHT22;20121;51.910;8.406;2023-04-24T01:49:42;10.50;99.90
33815;DHT22;20121;51.910;8.406;2023-04-24T01:52:08;10.00;99.90
33815;DHT22;20121;51.910;8.406;2023-04-24T01:54:33;11.00;99.90
33815;DHT22;20121;51.910;8.406;2023-04-24T01:56:59;10.40;99.90
33815;DHT22;20121;51.910;8.406;2023-04-24T01:59:28;10.40;99.90
33815;DHT22;20121;51.910;8.406;2023-04-24T02:01:53;10.30;99.90
33815;DHT22;20121;51.910;8.406;2023-04-24T02:04:19;10.30;99.90
33815;DHT22;20121;51.910;8.406;2023-04-24T02:06:45;10.10;99.90
33815;DHT22;20121;51.910;8.406;2023-04-24T02:09:11;10.10;99.90
33815;DHT22;20121;51.910;8.406;2023-04-24T02:11:36;10.20;99.90
33815;DHT22;20121;51.910;8.406;2023-04-24T02:14:02;10.50;99.90
33815;DHT22;20121;51.910;8.406;2023-04-24T02:16:28;10.10;99.90
33815;DHT22;20121;51.910;8.406;2023-04-24T02:18:57;10.00;99.90
33815;DHT22;20121;51.910;8.406;2023-04-24T02:21:23;10.00;99.90
33815;DHT22;20121;51.910;8.406;2023-04-24T02:23:48;9.90;99.90
33815;DHT22;20121;51.910;8.406;2023-04-24T02:26:14;10.00;99.90
33815;DHT22;20121;51.910;8.406;2023-04-24T02:28:40;10.00;99.90
33815;DHT22;20121;51.910;8.406;2023-04-24T02:31:06;10.00;99.90
33815;DHT22;20121;51.910;8.406;2023-04-24T02:35:58;9.90;99.90
33815;DHT22;20121;51.910;8.406;2023-04-24T02:38:23;9.90;99.90
33815;DHT22;20121;51.910;8.406;2023-04-24T02:40:49;9.80;99.90
33815;DHT22;20121;51.910;8.406;2023-04-24T02:43:14;9.70;99.90
33815;DHT22;20121;51.910;8.406;2023-04-24T02:45:40;9.70;99.90
33815;DHT22;20121;51.910;8.406;2023-04-24T02:48:05;9.70;99.90
33815;DHT22;20121;51.910;8.406;2023-04-24T02:50:31;9.60;99.90
33815;DHT22;20121;51.910;8.406;2023-04-24T02:52:57;9.60;99.90
33815;DHT22;20121;51.910;8.406;2023-04-24T02:55:23;9.60;99.90
33815;DHT22;20121;51.910;8.406;2023-04-24T02:57:48;9.70;99.90
33815;DHT22;20121;51.910;8.406;2023-04-24T03:00:14;9.60;99.90
33815;DHT22;20121;51.910;8.406;2023-04-24T03:02:40;9.60;99.90
33815;DHT22;20121;51.910;8.406;2023-04-24T03:05:05;9.60;99.90
33815;DHT22;20121;51.910;8.406;2023-04-24T03:07:31;9.60;99.90
33815;DHT22;20121;51.910;8.406;2023-04-24T03:09:57;9.60;99.90
33815;DHT22;20121;51.910;8.406;2023-04-24T03:12:23;9.70;99.90
33815;DHT22;20121;51.910;8.406;2023-04-24T03:14:49;9.70;99.90
33815;DHT22;20121;51.910;8.406;2023-04-24T03:17:15;9.70;99.90
33815;DHT22;20121;51.910;8.406;2023-04-24T03:19:40;9.80;99.90
33815;DHT22;20121;51.910;8.406;2023-04-24T03:22:06;9.80;99.90
33815;DHT22;20121;51.910;8.406;2023-04-24T03:24:32;9.90;99.90
33815;DHT22;20121;51.910;8.406;2023-04-24T03:26:57;9.90;99.90
33815;DHT22;20121;51.910;8.406;2023-04-24T03:29:23;9.90;99.90
33815;DHT22;20121;51.910;8.406;2023-04-24T03:31:49;9.90;99.90
33815;DHT22;20121;51.910;8.406;2023-04-24T03:34:14;9.90;99.90
33815;DHT22;20121;51.910;8.406;2023-04-24T03:36:40;10.00;99.90
33815;DHT22;20121;51.910;8.406;2023-04-24T03:39:05;10.00;99.90
33815;DHT22;20121;51.910;8.406;2023-04-24T03:41:31;9.30;99.90
33815;DHT22;20121;51.910;8.406;2023-04-24T03:43:57;10.00;99.90
33815;DHT22;20121;51.910;8.406;2023-04-24T03:46:22;10.00;99.90
33815;DHT22;20121;51.910;8.406;2023-04-24T03:48:48;10.10;99.90
33815;DHT22;20121;51.910;8.406;2023-04-24T03:51:13;10.10;99.90
33815;DHT22;20121;51.910;8.406;2023-04-24T03:53:39;10.10;99.90
33815;DHT22;20121;51.910;8.406;2023-04-24T03:56:05;10.10;99.90
33815;DHT22;20121;51.910;8.406;2023-04-24T03:58:30;10.10;99.90
33815;DHT22;20121;51.910;8.406;2023-04-24T04:00:56;10.50;99.90
33815;DHT22;20121;51.910;8.406;2023-04-24T04:03:23;10.10;99.90
33815;DHT22;20121;51.910;8.406;2023-04-24T04:05:49;10.10;99.90
33815;DHT22;20121;51.910;8.406;2023-04-24T04:08:15;10.10;99.90
33815;DHT22;20121;51.910;8.406;2023-04-24T04:10:41;10.10;99.90
33815;DHT22;20121;51.910;8.406;2023-04-24T04:13:06;10.10;99.90
33815;DHT22;20121;51.910;8.406;2023-04-24T04:15:32;9.90;99.90
33815;DHT22;20121;51.910;8.406;2023-04-24T04:17:57;10.10;99.90
33815;DHT22;20121;51.910;8.406;2023-04-24T04:20:23;10.10;99.90
33815;DHT22;20121;51.910;8.406;2023-04-24T04:22:49;10.10;99.90
33815;DHT22;20121;51.910;8.406;2023-04-24T04:25:14;9.90;99.90
33815;DHT22;20121;51.910;8.406;2023-04-24T04:27:40;10.40;99.90
33815;DHT22;20121;51.910;8.406;2023-04-24T04:30:07;10.20;99.90
33815;DHT22;20121;51.910;8.406;2023-04-24T04:32:36;10.30;99.90
33815;DHT22;20121;51.910;8.406;2023-04-24T04:35:03;10.20;99.90
33815;DHT22;20121;51.910;8.406;2023-04-24T04:37:32;10.20;99.90
33815;DHT22;20121;51.910;8.406;2023-04-24T04:40:01;10.20;99.90
33815;DHT22;20121;51.910;8.406;2023-04-24T04:42:32;10.20;99.90
33815;DHT22;20121;51.910;8.406;2023-04-24T04:44:58;10.30;99.90
33815;DHT22;20121;51.910;8.406;2023-04-24T04:47:23;10.20;99.90
33815;DHT22;20121;51.910;8.406;2023-04-24T04:49:49;9.80;99.90
33815;DHT22;20121;51.910;8.406;2023-04-24T04:52:17;10.10;99.90
33815;DHT22;20121;51.910;8.406;2023-04-24T04:54:43;10.10;99.90
33815;DHT22;20121;51.910;8.406;2023-04-24T04:57:08;10.40;99.90
33815;DHT22;20121;51.910;8.406;2023-04-24T04:59:34;10.00;99.90
33815;DHT22;20121;51.910;8.406;2023-04-24T05:02:00;10.00;99.90
33815;DHT22;20121;51.910;8.406;2023-04-24T05:04:26;10.00;99.90
33815;DHT22;20121;51.910;8.406;2023-04-24T05:06:52;10.00;99.90
33815;DHT22;20121;51.910;8.406;2023-04-24T05:09:18;9.90;99.90
33815;DHT22;20121;51.910;8.406;2023-04-24T05:11:43;9.90;99.90
33815;DHT22;20121;51.910;8.406;2023-04-24T05:14:09;9.90;99.90
33815;DHT22;20121;51.910;8.406;2023-04-24T05:16:35;9.90;99.90
33815;DHT22;20121;51.910;8.406;2023-04-24T05:19:02;9.80;99.90
33815;DHT22;20121;51.910;8.406;2023-04-24T05:21:28;9.90;99.90
33815;DHT22;20121;51.910;8.406;2023-04-24T05:23:53;9.90;99.90
33815;DHT22;20121;51.910;8.406;2023-04-24T05:26:19;9.90;99.90
33815;DHT22;20121;51.910;8.406;2023-04-24T05:28:44;9.90;99.90
33815;DHT22;20121;51.910;8.406;2023-04-24T05:31:10;9.50;99.90
33815;DHT22;20121;51.910;8.406;2023-04-24T05:33:37;9.90;99.90
33815;DHT22;20121;51.910;8.406;2023-04-24T05:36:03;10.00;99.90
33815;DHT22;20121;51.910;8.406;2023-04-24T05:38:30;10.00;99.90
33815;DHT22;20121;51.910;8.406;2023-04-24T05:40:56;10.00;99.90
33815;DHT22;20121;51.910;8.406;2023-04-24T05:43:22;10.00;99.90
33815;DHT22;20121;51.910;8.406;2023-04-24T05:45:47;10.00;99.90
33815;DHT22;20121;51.910;8.406;2023-04-24T05:48:13;10.00;99.90
33815;DHT22;20121;51.910;8.406;2023-04-24T05:50:38;10.10;99.90
33815;DHT22;20121;51.910;8.406;2023-04-24T05:53:05;10.10;99.90
33815;DHT22;20121;51.910;8.406;2023-04-24T05:55:32;10.10;99.90
33815;DHT22;20121;51.910;8.406;2023-04-24T05:57:58;10.10;99.90
33815;DHT22;20121;51.910;8.406;2023-04-24T06:00:25;10.10;99.90
33815;DHT22;20121;51.910;8.406;2023-04-24T06:02:50;10.10;99.90
33815;DHT22;20121;51.910;8.406;2023-04-24T06:05:18;10.10;99.90
33815;DHT22;20121;51.910;8.406;2023-04-24T06:07:43;10.10;99.90
33815;DHT22;20121;51.910;8.406;2023-04-24T06:10:09;10.20;99.90
33815;DHT22;20121;51.910;8.406;2023-04-24T06:12:35;10.20;99.90
33815;DHT22;20121;51.910;8.406;2023-04-24T06:15:02;10.10;99.90
33815;DHT22;20121;51.910;8.406;2023-04-24T06:17:27;10.20;99.90
33815;DHT22;20121;51.910;8.406;2023-04-24T06:19:53;10.20;99.90
33815;DHT22;20121;51.910;8.406;2023-04-24T06:22:19;10.20;99.90
33815;DHT22;20121;51.910;8.406;2023-04-24T06:24:44;10.10;99.90
33815;DHT22;20121;51.910;8.406;2023-04-24T06:27:10;10.10;99.90
33815;DHT22;20121;51.910;8.406;2023-04-24T06:29:36;10.20;99.90
33815;DHT22;20121;51.910;8.406;2023-04-24T06:32:02;12.00;99.90
33815;DHT22;20121;51.910;8.406;2023-04-24T06:34:27;10.20;99.90
33815;DHT22;20121;51.910;8.406;2023-04-24T06:36:54;10.20;99.90
33815;DHT22;20121;51.910;8.406;2023-04-24T06:39:20;10.20;99.90
33815;DHT22;20121;51.910;8.406;2023-04-24T06:41:46;10.20;99.90
33815;DHT22;20121;51.910;8.406;2023-04-24T06:44:11;10.10;99.90
33815;DHT22;20121;51.910;8.406;2023-04-24T06:46:37;10.20;99.90
33815;DHT22;20121;51.910;8.406;2023-04-24T06:49:03;10.20;99.90
33815;DHT22;20121;51.910;8.406;2023-04-24T06:51:28;10.30;99.90
33815;DHT22;20121;51.910;8.406;2023-04-24T06:53:54;10.30;99.90
33815;DHT22;20121;51.910;8.406;2023-04-24T06:56:21;11.20;99.90
33815;DHT22;20121;51.910;8.406;2023-04-24T06:58:47;10.30;99.90
33815;DHT22;20121;51.910;8.406;2023-04-24T07:01:13;10.30;99.90
33815;DHT22;20121;51.910;8.406;2023-04-24T07:03:39;10.30;99.90
33815;DHT22;20121;51.910;8.406;2023-04-24T07:06:05;10.30;99.90
33815;DHT22;20121;51.910;8.406;2023-04-24T07:08:31;10.30;99.90
33815;DHT22;20121;51.910;8.406;2023-04-24T07:10:58;10.40;99.90
33815;DHT22;20121;51.910;8.406;2023-04-24T07:13:24;10.30;99.90
33815;DHT22;20121;51.910;8.406;2023-04-24T07:15:50;10.40;99.90
33815;DHT22;20121;51.910;8.406;2023-04-24T07:18:18;10.40;99.90
33815;DHT22;20121;51.910;8.406;2023-04-24T07:20:44;10.40;99.90
33815;DHT22;20121;51.910;8.406;2023-04-24T07:23:10;10.50;99.90
33815;DHT22;20121;51.910;8.406;2023-04-24T07:25:35;10.50;99.90
33815;DHT22;20121;51.910;8.406;2023-04-24T07:28:01;10.50;99.90
33815;DHT22;20121;51.910;8.406;2023-04-24T07:30:27;10.50;99.90
33815;DHT22;20121;51.910;8.406;2023-04-24T07:32:54;10.50;99.90
33815;DHT22;20121;51.910;8.406;2023-04-24T07:35:21;10.50;99.90
33815;DHT22;20121;51.910;8.406;2023-04-24T07:37:47;10.50;99.90
33815;DHT22;20121;51.910;8.406;2023-04-24T07:40:13;10.40;99.90
33815;DHT22;20121;51.910;8.406;2023-04-24T07:42:39;10.50;99.90
33815;DHT22;20121;51.910;8.406;2023-04-24T07:45:05;10.60;99.90
33815;DHT22;20121;51.910;8.406;2023-04-24T07:47:31;10.60;99.90
33815;DHT22;20121;51.910;8.406;2023-04-24T07:49:58;10.40;99.90
33815;DHT22;20121;51.910;8.406;2023-04-24T07:52:24;10.60;99.90
33815;DHT22;20121;51.910;8.406;2023-04-24T07:54:49;10.70;99.90
33815;DHT22;20121;51.910;8.406;2023-04-24T07:57:16;11.10;99.90
33815;DHT22;20121;51.910;8.406;2023-04-24T07:59:42;10.80;99.90
33815;DHT22;20121;51.910;8.406;2023-04-24T08:02:07;10.80;99.90
33815;DHT22;20121;51.910;8.406;2023-04-24T08:04:33;11.00;99.90
33815;DHT22;20121;51.910;8.406;2023-04-24T08:06:59;10.80;99.90
33815;DHT22;20121;51.910;8.406;2023-04-24T08:09:24;10.80;99.90
33815;DHT22;20121;51.910;8.406;2023-04-24T08:11:50;10.40;99.90
33815;DHT22;20121;51.910;8.406;2023-04-24T08:14:16;10.70;99.90
33815;DHT22;20121;51.910;8.406;2023-04-24T08:16:41;10.60;99.90
33815;DHT22;20121;51.910;8.406;2023-04-24T08:19:07;10.70;99.90
33815;DHT22;20121;51.910;8.406;2023-04-24T08:21:33;10.70;99.90
33815;DHT22;20121;51.910;8.406;2023-04-24T08:23:58;10.80;99.90
33815;DHT22;20121;51.910;8.406;2023-04-24T08:26:24;10.80;99.90
33815;DHT22;20121;51.910;8.406;2023-04-24T08:28:50;10.90;99.90
33815;DHT22;20121;51.910;8.406;2023-04-24T08:31:16;10.90;99.90
33815;DHT22;20121;51.910;8.406;2023-04-24T08:36:10;10.90;99.90
33815;DHT22;20121;51.910;8.406;2023-04-24T08:38:36;10.90;99.90
33815;DHT22;20121;51.910;8.406;2023-04-24T08:41:01;11.30;99.90
33815;DHT22;20121;51.910;8.406;2023-04-24T08:43:28;11.00;99.90
33815;DHT22;20121;51.910;8.406;2023-04-24T08:45:56;10.90;99.90
33815;DHT22;20121;51.910;8.406;2023-04-24T08:48:22;10.80;99.90
33815;DHT22;20121;51.910;8.406;2023-04-24T08:50:50;10.90;99.90
33815;DHT22;20121;51.910;8.406;2023-04-24T08:53:16;10.90;99.90
33815;DHT22;20121;51.910;8.406;2023-04-24T08:55:43;11.00;99.90
33815;DHT22;20121;51.910;8.406;2023-04-24T08:58:12;11.00;99.90
33815;DHT22;20121;51.910;8.406;2023-04-24T09:00:39;10.90;99.90
33815;DHT22;20121;51.910;8.406;2023-04-24T09:03:10;10.90;99.90
33815;DHT22;20121;51.910;8.406;2023-04-24T09:05:36;10.90;99.90
33815;DHT22;20121;51.910;8.406;2023-04-24T09:08:02;10.90;99.90
33815;DHT22;20121;51.910;8.406;2023-04-24T09:10:29;11.00;99.90
33815;DHT22;20121;51.910;8.406;2023-04-24T09:12:56;10.90;99.90
33815;DHT22;20121;51.910;8.406;2023-04-24T09:15:24;10.80;99.90
33815;DHT22;20121;51.910;8.406;2023-04-24T09:17:50;10.80;99.90
33815;DHT22;20121;51.910;8.406;2023-04-24T09:20:16;10.90;99.90
33815;DHT22;20121;51.910;8.406;2023-04-24T09:22:45;10.90;99.90
33815;DHT22;20121;51.910;8.406;2023-04-24T09:25:11;11.20;99.90
33815;DHT22;20121;51.910;8.406;2023-04-24T09:27:45;11.40;99.90
33815;DHT22;20121;51.910;8.406;2023-04-24T09:30:11;11.50;99.90
33815;DHT22;20121;51.910;8.406;2023-04-24T09:32:37;11.60;99.90
33815;DHT22;20121;51.910;8.406;2023-04-24T09:35:14;11.60;99.90
33815;DHT22;20121;51.910;8.406;2023-04-24T09:37:46;11.60;99.90
33815;DHT22;20121;51.910;8.406;2023-04-24T09:40:21;11.50;99.90
33815;DHT22;20121;51.910;8.406;2023-04-24T09:42:55;11.50;99.90
33815;DHT22;20121;51.910;8.406;2023-04-24T09:45:36;11.40;99.90
33815;DHT22;20121;51.910;8.406;2023-04-24T09:48:02;11.30;99.90
33815;DHT22;20121;51.910;8.406;2023-04-24T09:50:30;11.20;99.90
33815;DHT22;20121;51.910;8.406;2023-04-24T09:53:03;11.10;99.90
33815;DHT22;20121;51.910;8.406;2023-04-24T09:55:29;10.90;99.90
33815;DHT22;20121;51.910;8.406;2023-04-24T09:57:59;10.90;99.90
33815;DHT22;20121;51.910;8.406;2023-04-24T10:00:32;10.50;99.90
33815;DHT22;20121;51.910;8.406;2023-04-24T10:02:59;10.80;99.90
33815;DHT22;20121;51.910;8.406;2023-04-24T10:05:33;10.80;99.90
33815;DHT22;20121;51.910;8.406;2023-04-24T10:08:04;10.80;99.90
33815;DHT22;20121;51.910;8.406;2023-04-24T10:10:31;10.70;99.90
33815;DHT22;20121;51.910;8.406;2023-04-24T10:12:58;10.70;99.90
33815;DHT22;20121;51.910;8.406;2023-04-24T10:15:24;10.60;99.90
33815;DHT22;20121;51.910;8.406;2023-04-24T10:17:51;10.70;99.90
33815;DHT22;20121;51.910;8.406;2023-04-24T10:20:29;10.60;99.90
33815;DHT22;20121;51.910;8.406;2023-04-24T10:22:56;10.60;99.90
33815;DHT22;20121;51.910;8.406;2023-04-24T10:25:25;10.70;99.90
33815;DHT22;20121;51.910;8.406;2023-04-24T10:27:52;10.70;99.90
33815;DHT22;20121;51.910;8.406;2023-04-24T10:30:19;10.60;99.90
33815;DHT22;20121;51.910;8.406;2023-04-24T10:32:45;10.60;99.90
33815;DHT22;20121;51.910;8.406;2023-04-24T10:35:15;10.40;99.90
33815;DHT22;20121;51.910;8.406;2023-04-24T10:37:45;10.30;99.90
33815;DHT22;20121;51.910;8.406;2023-04-24T10:40:33;10.10;99.90
33815;DHT22;20121;51.910;8.406;2023-04-24T10:42:59;10.20;99.90
33815;DHT22;20121;51.910;8.406;2023-04-24T10:45:27;10.10;99.90
33815;DHT22;20121;51.910;8.406;2023-04-24T10:48:09;10.20;99.90
33815;DHT22;20121;51.910;8.406;2023-04-24T10:50:52;10.10;99.90
33815;DHT22;20121;51.910;8.406;2023-04-24T10:53:22;10.10;99.90
33815;DHT22;20121;51.910;8.406;2023-04-24T10:56:06;10.10;99.90
33815;DHT22;20121;51.910;8.406;2023-04-24T10:58:49;10.10;99.90
33815;DHT22;20121;51.910;8.406;2023-04-24T11:01:31;10.10;99.90
33815;DHT22;20121;51.910;8.406;2023-04-24T11:04:02;10.00;99.90
33815;DHT22;20121;51.910;8.406;2023-04-24T11:06:29;10.00;99.90
33815;DHT22;20121;51.910;8.406;2023-04-24T11:09:08;9.90;99.90
33815;DHT22;20121;51.910;8.406;2023-04-24T11:11:35;9.90;99.90
33815;DHT22;20121;51.910;8.406;2023-04-24T11:14:08;9.90;99.90
33815;DHT22;20121;51.910;8.406;2023-04-24T11:16:53;9.90;99.90
33815;DHT22;20121;51.910;8.406;2023-04-24T11:19:24;9.80;99.90
33815;DHT22;20121;51.910;8.406;2023-04-24T11:22:04;9.80;99.90
33815;DHT22;20121;51.910;8.406;2023-04-24T11:27:17;10.00;99.90
33815;DHT22;20121;51.910;8.406;2023-04-24T11:34:56;9.90;99.90
33815;DHT22;20121;51.910;8.406;2023-04-24T11:37:28;9.90;99.90
33815;DHT22;20121;51.910;8.406;2023-04-24T11:39:56;9.90;99.90
33815;DHT22;20121;51.910;8.406;2023-04-24T11:42:22;9.80;99.90
33815;DHT22;20121;51.910;8.406;2023-04-24T11:44:51;9.90;99.90
33815;DHT22;20121;51.910;8.406;2023-04-24T11:47:17;9.90;99.90
33815;DHT22;20121;51.910;8.406;2023-04-24T11:49:42;10.10;99.90
33815;DHT22;20121;51.910;8.406;2023-04-24T11:52:08;9.90;99.90
33815;DHT22;20121;51.910;8.406;2023-04-24T11:54:34;10.10;99.90
33815;DHT22;20121;51.910;8.406;2023-04-24T11:57:04;9.70;99.90
33815;DHT22;20121;51.910;8.406;2023-04-24T11:59:30;9.70;99.90
33815;DHT22;20121;51.910;8.406;2023-04-24T12:02:00;9.70;99.90
33815;DHT22;20121;51.910;8.406;2023-04-24T12:04:25;9.90;99.90
33815;DHT22;20121;51.910;8.406;2023-04-24T12:07:02;9.60;99.90
33815;DHT22;20121;51.910;8.406;2023-04-24T12:09:28;9.40;99.90
33815;DHT22;20121;51.910;8.406;2023-04-24T12:11:54;9.40;99.90
33815;DHT22;20121;51.910;8.406;2023-04-24T12:16:50;9.50;99.90
33815;DHT22;20121;51.910;8.406;2023-04-24T12:19:22;9.50;99.90
33815;DHT22;20121;51.910;8.406;2023-04-24T12:22:02;9.40;99.90
33815;DHT22;20121;51.910;8.406;2023-04-24T12:24:29;9.30;99.90
33815;DHT22;20121;51.910;8.406;2023-04-24T12:26:55;9.50;99.90
33815;DHT22;20121;51.910;8.406;2023-04-24T12:29:22;9.40;99.90
33815;DHT22;20121;51.910;8.406;2023-04-24T12:31:48;9.50;99.90
33815;DHT22;20121;51.910;8.406;2023-04-24T12:36:50;9.50;99.90
33815;DHT22;20121;51.910;8.406;2023-04-24T12:39:19;9.50;99.90
33815;DHT22;20121;51.910;8.406;2023-04-24T12:41:55;9.50;99.90
33815;DHT22;20121;51.910;8.406;2023-04-24T12:44:32;9.50;99.90
33815;DHT22;20121;51.910;8.406;2023-04-24T12:47:00;9.50;99.90
33815;DHT22;20121;51.910;8.406;2023-04-24T12:49:30;9.50;99.90
33815;DHT22;20121;51.910;8.406;2023-04-24T12:51:55;9.50;99.90
33815;DHT22;20121;51.910;8.406;2023-04-24T12:54:22;9.60;99.90
33815;DHT22;20121;51.910;8.406;2023-04-24T12:56:47;9.60;99.90
33815;DHT22;20121;51.910;8.406;2023-04-24T12:59:13;9.60;99.90
33815;DHT22;20121;51.910;8.406;2023-04-24T13:01:38;9.60;99.90
33815;DHT22;20121;51.910;8.406;2023-04-24T13:04:05;9.50;99.90
33815;DHT22;20121;51.910;8.406;2023-04-24T13:06:31;9.40;99.90
33815;DHT22;20121;51.910;8.406;2023-04-24T13:08:57;9.40;99.90
33815;DHT22;20121;51.910;8.406;2023-04-24T13:11:23;9.50;99.90
33815;DHT22;20121;51.910;8.406;2023-04-24T13:13:50;9.50;99.90
33815;DHT22;20121;51.910;8.406;2023-04-24T13:16:15;9.50;99.90
33815;DHT22;20121;51.910;8.406;2023-04-24T13:18:41;9.50;99.90
33815;DHT22;20121;51.910;8.406;2023-04-24T13:21:07;9.50;99.90
33815;DHT22;20121;51.910;8.406;2023-04-24T13:23:32;9.30;99.90
33815;DHT22;20121;51.910;8.406;2023-04-24T13:25:58;9.40;99.90
33815;DHT22;20121;51.910;8.406;2023-04-24T13:28:24;9.50;99.90
33815;DHT22;20121;51.910;8.406;2023-04-24T13:30:51;9.70;99.90
33815;DHT22;20121;51.910;8.406;2023-04-24T13:33:16;9.50;99.90
33815;DHT22;20121;51.910;8.406;2023-04-24T13:35:42;9.60;99.90
33815;DHT22;20121;51.910;8.406;2023-04-24T13:38:08;9.60;99.90
33815;DHT22;20121;51.910;8.406;2023-04-24T13:40:33;9.60;99.90
33815;DHT22;20121;51.910;8.406;2023-04-24T13:42:59;9.70;99.90
33815;DHT22;20121;51.910;8.406;2023-04-24T13:45:26;9.60;99.90
33815;DHT22;20121;51.910;8.406;2023-04-24T13:47:52;9.60;99.90
33815;DHT22;20121;51.910;8.406;2023-04-24T13:50:19;9.60;99.90
33815;DHT22;20121;51.910;8.406;2023-04-24T13:52:45;9.60;99.90
33815;DHT22;20121;51.910;8.406;2023-04-24T13:55:10;9.50;99.90
33815;DHT22;20121;51.910;8.406;2023-04-24T13:57:36;9.50;99.90
33815;DHT22;20121;51.910;8.406;2023-04-24T14:00:02;9.40;99.90
33815;DHT22;20121;51.910;8.406;2023-04-24T14:02:29;9.40;99.90
33815;DHT22;20121;51.910;8.406;2023-04-24T14:04:55;9.30;99.90
33815;DHT22;20121;51.910;8.406;2023-04-24T14:07:21;9.30;99.90
33815;DHT22;20121;51.910;8.406;2023-04-24T14:09:46;9.20;99.90
33815;DHT22;20121;51.910;8.406;2023-04-24T14:12:12;9.00;99.90
33815;DHT22;20121;51.910;8.406;2023-04-24T14:14:39;8.90;99.90
33815;DHT22;20121;51.910;8.406;2023-04-24T14:17:05;9.20;99.90
33815;DHT22;20121;51.910;8.406;2023-04-24T14:19:31;9.20;99.90
33815;DHT22;20121;51.910;8.406;2023-04-24T14:21:56;9.20;99.90
33815;DHT22;20121;51.910;8.406;2023-04-24T14:26:49;9.20;99.90
33815;DHT22;20121;51.910;8.406;2023-04-24T14:29:15;9.30;99.90
33815;DHT22;20121;51.910;8.406;2023-04-24T14:31:42;9.20;99.90
33815;DHT22;20121;51.910;8.406;2023-04-24T14:34:09;9.20;99.90
33815;DHT22;20121;51.910;8.406;2023-04-24T14:36:34;9.30;99.90
33815;DHT22;20121;51.910;8.406;2023-04-24T14:39:00;9.30;99.90
33815;DHT22;20121;51.910;8.406;2023-04-24T14:41:28;9.30;99.90
33815;DHT22;20121;51.910;8.406;2023-04-24T14:43:54;9.40;99.90
33815;DHT22;20121;51.910;8.406;2023-04-24T14:46:20;9.40;99.90
33815;DHT22;20121;51.910;8.406;2023-04-24T14:48:45;9.30;99.90
33815;DHT22;20121;51.910;8.406;2023-04-24T14:51:11;9.40;99.90
33815;DHT22;20121;51.910;8.406;2023-04-24T14:53:36;9.30;99.90
33815;DHT22;20121;51.910;8.406;2023-04-24T14:56:02;9.30;99.90
33815;DHT22;20121;51.910;8.406;2023-04-24T14:58:28;9.30;99.90
33815;DHT22;20121;51.910;8.406;2023-04-24T15:00:53;9.30;99.90
33815;DHT22;20121;51.910;8.406;2023-04-24T15:03:19;9.30;99.90
33815;DHT22;20121;51.910;8.406;2023-04-24T15:05:46;10.30;99.90
33815;DHT22;20121;51.910;8.406;2023-04-24T15:08:11;9.40;99.90
33815;DHT22;20121;51.910;8.406;2023-04-24T15:10:37;9.40;99.90
33815;DHT22;20121;51.910;8.406;2023-04-24T15:13:03;9.50;99.90
33815;DHT22;20121;51.910;8.406;2023-04-24T15:15:29;9.80;99.90
33815;DHT22;20121;51.910;8.406;2023-04-24T15:17:54;9.50;99.90
33815;DHT22;20121;51.910;8.406;2023-04-24T15:20:20;9.60;99.90
33815;DHT22;20121;51.910;8.406;2023-04-24T15:22:46;9.60;99.90
33815;DHT22;20121;51.910;8.406;2023-04-24T15:25:12;9.70;99.90
33815;DHT22;20121;51.910;8.406;2023-04-24T15:27:45;9.80;99.90
33815;DHT22;20121;51.910;8.406;2023-04-24T15:30:11;9.80;99.90
33815;DHT22;20121;51.910;8.406;2023-04-24T15:32:38;9.90;99.90
33815;DHT22;20121;51.910;8.406;2023-04-24T15:35:04;9.90;99.90
33815;DHT22;20121;51.910;8.406;2023-04-24T15:37:30;10.00;99.90
33815;DHT22;20121;51.910;8.406;2023-04-24T15:39:56;9.90;99.90
33815;DHT22;20121;51.910;8.406;2023-04-24T15:42:21;10.00;99.90
33815;DHT22;20121;51.910;8.406;2023-04-24T15:44:47;10.00;99.90
33815;DHT22;20121;51.910;8.406;2023-04-24T15:47:12;9.90;99.90
33815;DHT22;20121;51.910;8.406;2023-04-24T15:49:39;9.90;99.90
33815;DHT22;20121;51.910;8.406;2023-04-24T15:52:05;9.90;99.90
33815;DHT22;20121;51.910;8.406;2023-04-24T15:54:31;9.80;99.90
33815;DHT22;20121;51.910;8.406;2023-04-24T15:56:57;9.80;99.90